<?xml version="1.0" encoding="utf-8"?>
<gpx xmlns:xsi="http://www.w3.org/2001/XMLSchema-instance" xmlns:xsd="http://www.w3.org/2001/XMLSchema" version="1.1" creator="Shapelink.com" xmlns="http://www.topografix.com/GPX/1/1" xmlns:gpxtpx="http://www.garmin.com/xmlschemas/TrackPointExtension/v1">
  <metadata>
    <name>Running 9.91 km, 2012-06-21</name>
    <desc></desc>
    <author><name>David Ståhlman</name></author> 
    <time>2012-06-21T18:59:39Z</time>
  </metadata>
  <trk>
    <name>Running 9.91 km, 2012-06-21</name>
    <trkseg>
      <trkpt lat="60.1506393" lon="19.9500448">
        <ele>36.6675</ele>
        <time>2012-06-21T18:59:39Z</time>
      </trkpt>
      <trkpt lat="60.1506688" lon="19.9499659">
        <ele>37.6287</ele>
        <time>2012-06-21T18:59:41Z</time>
      </trkpt>
      <trkpt lat="60.1508272" lon="19.9497856">
        <ele>40.0321</ele>
        <time>2012-06-21T18:59:48Z</time>
      </trkpt>
      <trkpt lat="60.1509335" lon="19.9495782">
        <ele>40.9934</ele>
        <time>2012-06-21T18:59:53Z</time>
      </trkpt>
      <trkpt lat="60.1509181" lon="19.9492436">
        <ele>39.5513</ele>
        <time>2012-06-21T18:59:59Z</time>
      </trkpt>
      <trkpt lat="60.1509136" lon="19.9490109">
        <ele>38.1094</ele>
        <time>2012-06-21T19:00:04Z</time>
      </trkpt>
      <trkpt lat="60.1509392" lon="19.9488379">
        <ele>37.6287</ele>
        <time>2012-06-21T19:00:07Z</time>
      </trkpt>
      <trkpt lat="60.1510672" lon="19.9487962">
        <ele>36.1868</ele>
        <time>2012-06-21T19:00:12Z</time>
      </trkpt>
      <trkpt lat="60.151224" lon="19.9488151">
        <ele>32.3416</ele>
        <time>2012-06-21T19:00:18Z</time>
      </trkpt>
      <trkpt lat="60.151354" lon="19.9488155">
        <ele>30.4188</ele>
        <time>2012-06-21T19:00:23Z</time>
      </trkpt>
      <trkpt lat="60.1514934" lon="19.9487931">
        <ele>32.8223</ele>
        <time>2012-06-21T19:00:28Z</time>
      </trkpt>
      <trkpt lat="60.1516644" lon="19.9487404">
        <ele>33.3029</ele>
        <time>2012-06-21T19:00:34Z</time>
      </trkpt>
      <trkpt lat="60.151798" lon="19.9487229">
        <ele>34.7449</ele>
        <time>2012-06-21T19:00:38Z</time>
      </trkpt>
      <trkpt lat="60.1519529" lon="19.9487099">
        <ele>36.6675</ele>
        <time>2012-06-21T19:00:43Z</time>
      </trkpt>
      <trkpt lat="60.1520992" lon="19.9486478">
        <ele>37.1481</ele>
        <time>2012-06-21T19:00:48Z</time>
      </trkpt>
      <trkpt lat="60.1521789" lon="19.9486295">
        <ele>36.6675</ele>
        <time>2012-06-21T19:00:51Z</time>
      </trkpt>
      <trkpt lat="60.15231" lon="19.9485284">
        <ele>35.7061</ele>
        <time>2012-06-21T19:00:56Z</time>
      </trkpt>
      <trkpt lat="60.1523419" lon="19.9485177">
        <ele>36.1868</ele>
        <time>2012-06-21T19:00:57Z</time>
      </trkpt>
      <trkpt lat="60.1525176" lon="19.9484706">
        <ele>34.2642</ele>
        <time>2012-06-21T19:01:03Z</time>
      </trkpt>
      <trkpt lat="60.1526751" lon="19.9484352">
        <ele>34.7449</ele>
        <time>2012-06-21T19:01:08Z</time>
      </trkpt>
      <trkpt lat="60.1528573" lon="19.9483965">
        <ele>34.2642</ele>
        <time>2012-06-21T19:01:14Z</time>
      </trkpt>
      <trkpt lat="60.1530067" lon="19.9483526">
        <ele>33.7834</ele>
        <time>2012-06-21T19:01:19Z</time>
      </trkpt>
      <trkpt lat="60.1532096" lon="19.9483027">
        <ele>33.7834</ele>
        <time>2012-06-21T19:01:26Z</time>
      </trkpt>
      <trkpt lat="60.1534221" lon="19.9482529">
        <ele>34.2642</ele>
        <time>2012-06-21T19:01:33Z</time>
      </trkpt>
      <trkpt lat="60.1536042" lon="19.9482062">
        <ele>34.7449</ele>
        <time>2012-06-21T19:01:39Z</time>
      </trkpt>
      <trkpt lat="60.153786" lon="19.9481638">
        <ele>34.7449</ele>
        <time>2012-06-21T19:01:45Z</time>
      </trkpt>
      <trkpt lat="60.1539533" lon="19.9480221">
        <ele>35.7061</ele>
        <time>2012-06-21T19:01:51Z</time>
      </trkpt>
      <trkpt lat="60.1541327" lon="19.947779">
        <ele>36.1868</ele>
        <time>2012-06-21T19:01:58Z</time>
      </trkpt>
      <trkpt lat="60.1543214" lon="19.9475718">
        <ele>36.6675</ele>
        <time>2012-06-21T19:02:05Z</time>
      </trkpt>
      <trkpt lat="60.1544846" lon="19.9474294">
        <ele>36.1868</ele>
        <time>2012-06-21T19:02:11Z</time>
      </trkpt>
      <trkpt lat="60.154687" lon="19.9473686">
        <ele>35.7061</ele>
        <time>2012-06-21T19:02:18Z</time>
      </trkpt>
      <trkpt lat="60.1548625" lon="19.9473468">
        <ele>35.7061</ele>
        <time>2012-06-21T19:02:24Z</time>
      </trkpt>
      <trkpt lat="60.1550126" lon="19.947328">
        <ele>36.6675</ele>
        <time>2012-06-21T19:02:29Z</time>
      </trkpt>
      <trkpt lat="60.155182" lon="19.9473252">
        <ele>36.6675</ele>
        <time>2012-06-21T19:02:35Z</time>
      </trkpt>
      <trkpt lat="60.1553294" lon="19.9473308">
        <ele>37.6287</ele>
        <time>2012-06-21T19:02:40Z</time>
      </trkpt>
      <trkpt lat="60.1555105" lon="19.9473584">
        <ele>38.1094</ele>
        <time>2012-06-21T19:02:46Z</time>
      </trkpt>
      <trkpt lat="60.15566" lon="19.9473585">
        <ele>39.5513</ele>
        <time>2012-06-21T19:02:51Z</time>
      </trkpt>
      <trkpt lat="60.1557971" lon="19.9473394">
        <ele>39.5513</ele>
        <time>2012-06-21T19:02:56Z</time>
      </trkpt>
      <trkpt lat="60.1559442" lon="19.9473302">
        <ele>39.5513</ele>
        <time>2012-06-21T19:03:01Z</time>
      </trkpt>
      <trkpt lat="60.1561142" lon="19.9473207">
        <ele>40.5128</ele>
        <time>2012-06-21T19:03:07Z</time>
      </trkpt>
      <trkpt lat="60.1562383" lon="19.9473162">
        <ele>41.9547</ele>
        <time>2012-06-21T19:03:11Z</time>
      </trkpt>
      <trkpt lat="60.1564095" lon="19.9473381">
        <ele>40.0321</ele>
        <time>2012-06-21T19:03:17Z</time>
      </trkpt>
      <trkpt lat="60.156553" lon="19.9473745">
        <ele>37.6287</ele>
        <time>2012-06-21T19:03:22Z</time>
      </trkpt>
      <trkpt lat="60.1567342" lon="19.9473951">
        <ele>38.1094</ele>
        <time>2012-06-21T19:03:28Z</time>
      </trkpt>
      <trkpt lat="60.1569068" lon="19.9474022">
        <ele>35.7061</ele>
        <time>2012-06-21T19:03:34Z</time>
      </trkpt>
      <trkpt lat="60.1570719" lon="19.9474041">
        <ele>33.3029</ele>
        <time>2012-06-21T19:03:40Z</time>
      </trkpt>
      <trkpt lat="60.1575117" lon="19.9474066">
        <ele>40.9934</ele>
        <time>2012-06-21T19:06:24Z</time>
      </trkpt>
      <trkpt lat="60.1577241" lon="19.9474165">
        <ele>41.474</ele>
        <time>2012-06-21T19:06:31Z</time>
      </trkpt>
      <trkpt lat="60.1579028" lon="19.9473921">
        <ele>40.5128</ele>
        <time>2012-06-21T19:06:37Z</time>
      </trkpt>
      <trkpt lat="60.1581048" lon="19.9473756">
        <ele>38.5901</ele>
        <time>2012-06-21T19:06:44Z</time>
      </trkpt>
      <trkpt lat="60.1582538" lon="19.9473491">
        <ele>39.0707</ele>
        <time>2012-06-21T19:06:49Z</time>
      </trkpt>
      <trkpt lat="60.1584356" lon="19.9473105">
        <ele>39.0707</ele>
        <time>2012-06-21T19:06:55Z</time>
      </trkpt>
      <trkpt lat="60.1585891" lon="19.9472717">
        <ele>38.1094</ele>
        <time>2012-06-21T19:07:00Z</time>
      </trkpt>
      <trkpt lat="60.1588012" lon="19.9472045">
        <ele>36.6675</ele>
        <time>2012-06-21T19:07:07Z</time>
      </trkpt>
      <trkpt lat="60.1589182" lon="19.9471581">
        <ele>37.6287</ele>
        <time>2012-06-21T19:07:11Z</time>
      </trkpt>
      <trkpt lat="60.1591248" lon="19.9470947">
        <ele>37.1481</ele>
        <time>2012-06-21T19:07:18Z</time>
      </trkpt>
      <trkpt lat="60.1592761" lon="19.9470672">
        <ele>36.6675</ele>
        <time>2012-06-21T19:07:23Z</time>
      </trkpt>
      <trkpt lat="60.159457" lon="19.9470767">
        <ele>35.2255</ele>
        <time>2012-06-21T19:07:29Z</time>
      </trkpt>
      <trkpt lat="60.1596481" lon="19.9470983">
        <ele>36.1868</ele>
        <time>2012-06-21T19:07:35Z</time>
      </trkpt>
      <trkpt lat="60.1598376" lon="19.9471134">
        <ele>37.6287</ele>
        <time>2012-06-21T19:07:41Z</time>
      </trkpt>
      <trkpt lat="60.1600158" lon="19.9471227">
        <ele>38.5901</ele>
        <time>2012-06-21T19:07:47Z</time>
      </trkpt>
      <trkpt lat="60.1601951" lon="19.9471629">
        <ele>40.0321</ele>
        <time>2012-06-21T19:07:53Z</time>
      </trkpt>
      <trkpt lat="60.1603845" lon="19.9471762">
        <ele>40.5128</ele>
        <time>2012-06-21T19:07:59Z</time>
      </trkpt>
      <trkpt lat="60.1605987" lon="19.9471874">
        <ele>41.474</ele>
        <time>2012-06-21T19:08:06Z</time>
      </trkpt>
      <trkpt lat="60.1607881" lon="19.9472134">
        <ele>41.474</ele>
        <time>2012-06-21T19:08:12Z</time>
      </trkpt>
      <trkpt lat="60.1609549" lon="19.9472168">
        <ele>42.916</ele>
        <time>2012-06-21T19:08:17Z</time>
      </trkpt>
      <trkpt lat="60.161116" lon="19.9472095">
        <ele>43.8773</ele>
        <time>2012-06-21T19:08:22Z</time>
      </trkpt>
      <trkpt lat="60.1612635" lon="19.9472004">
        <ele>42.916</ele>
        <time>2012-06-21T19:08:27Z</time>
      </trkpt>
      <trkpt lat="60.1614502" lon="19.9471906">
        <ele>42.916</ele>
        <time>2012-06-21T19:08:33Z</time>
      </trkpt>
      <trkpt lat="60.1614802" lon="19.9472019">
        <ele>42.916</ele>
        <time>2012-06-21T19:08:34Z</time>
      </trkpt>
      <trkpt lat="60.1615885" lon="19.9472788">
        <ele>42.916</ele>
        <time>2012-06-21T19:08:38Z</time>
      </trkpt>
      <trkpt lat="60.1617889" lon="19.9472743">
        <ele>41.474</ele>
        <time>2012-06-21T19:08:45Z</time>
      </trkpt>
      <trkpt lat="60.1619474" lon="19.9472413">
        <ele>43.3966</ele>
        <time>2012-06-21T19:08:50Z</time>
      </trkpt>
      <trkpt lat="60.1621332" lon="19.9472018">
        <ele>43.8773</ele>
        <time>2012-06-21T19:08:56Z</time>
      </trkpt>
      <trkpt lat="60.1622874" lon="19.9472057">
        <ele>45.7999</ele>
        <time>2012-06-21T19:09:01Z</time>
      </trkpt>
      <trkpt lat="60.1624357" lon="19.9471904">
        <ele>46.7612</ele>
        <time>2012-06-21T19:09:06Z</time>
      </trkpt>
      <trkpt lat="60.1625681" lon="19.9472092">
        <ele>44.8386</ele>
        <time>2012-06-21T19:09:11Z</time>
      </trkpt>
      <trkpt lat="60.1626985" lon="19.9471776">
        <ele>43.3966</ele>
        <time>2012-06-21T19:09:16Z</time>
      </trkpt>
      <trkpt lat="60.1628923" lon="19.947131">
        <ele>45.3192</ele>
        <time>2012-06-21T19:09:22Z</time>
      </trkpt>
      <trkpt lat="60.1630445" lon="19.9470641">
        <ele>45.7999</ele>
        <time>2012-06-21T19:09:27Z</time>
      </trkpt>
      <trkpt lat="60.163262" lon="19.9470103">
        <ele>46.7612</ele>
        <time>2012-06-21T19:09:34Z</time>
      </trkpt>
      <trkpt lat="60.1634621" lon="19.9469933">
        <ele>44.8386</ele>
        <time>2012-06-21T19:09:41Z</time>
      </trkpt>
      <trkpt lat="60.1636061" lon="19.9469631">
        <ele>44.358</ele>
        <time>2012-06-21T19:09:46Z</time>
      </trkpt>
      <trkpt lat="60.1638632" lon="19.9469103">
        <ele>45.7999</ele>
        <time>2012-06-21T19:09:54Z</time>
      </trkpt>
      <trkpt lat="60.1640147" lon="19.9469035">
        <ele>44.358</ele>
        <time>2012-06-21T19:09:59Z</time>
      </trkpt>
      <trkpt lat="60.1641631" lon="19.9469384">
        <ele>42.4354</ele>
        <time>2012-06-21T19:10:04Z</time>
      </trkpt>
      <trkpt lat="60.1643184" lon="19.9470018">
        <ele>40.9934</ele>
        <time>2012-06-21T19:10:09Z</time>
      </trkpt>
      <trkpt lat="60.1644672" lon="19.9471396">
        <ele>40.0321</ele>
        <time>2012-06-21T19:10:14Z</time>
      </trkpt>
      <trkpt lat="60.1645876" lon="19.9472574">
        <ele>38.5901</ele>
        <time>2012-06-21T19:10:18Z</time>
      </trkpt>
      <trkpt lat="60.1648134" lon="19.9474076">
        <ele>35.2255</ele>
        <time>2012-06-21T19:10:25Z</time>
      </trkpt>
      <trkpt lat="60.1649611" lon="19.9474971">
        <ele>32.3416</ele>
        <time>2012-06-21T19:10:30Z</time>
      </trkpt>
      <trkpt lat="60.1651247" lon="19.9476157">
        <ele>30.8995</ele>
        <time>2012-06-21T19:10:35Z</time>
      </trkpt>
      <trkpt lat="60.1652896" lon="19.9477672">
        <ele>31.3801</ele>
        <time>2012-06-21T19:10:40Z</time>
      </trkpt>
      <trkpt lat="60.1654834" lon="19.9479979">
        <ele>29.9381</ele>
        <time>2012-06-21T19:10:46Z</time>
      </trkpt>
      <trkpt lat="60.1656117" lon="19.9481758">
        <ele>30.8995</ele>
        <time>2012-06-21T19:10:50Z</time>
      </trkpt>
      <trkpt lat="60.1657823" lon="19.9484354">
        <ele>30.8995</ele>
        <time>2012-06-21T19:10:55Z</time>
      </trkpt>
      <trkpt lat="60.1658159" lon="19.9484907">
        <ele>30.8995</ele>
        <time>2012-06-21T19:10:56Z</time>
      </trkpt>
      <trkpt lat="60.1658805" lon="19.9486073">
        <ele>30.4188</ele>
        <time>2012-06-21T19:10:58Z</time>
      </trkpt>
      <trkpt lat="60.166026" lon="19.9490486">
        <ele>28.9769</ele>
        <time>2012-06-21T19:11:04Z</time>
      </trkpt>
      <trkpt lat="60.1661469" lon="19.9493986">
        <ele>28.0155</ele>
        <time>2012-06-21T19:11:09Z</time>
      </trkpt>
      <trkpt lat="60.1662354" lon="19.9496807">
        <ele>27.0543</ele>
        <time>2012-06-21T19:11:13Z</time>
      </trkpt>
      <trkpt lat="60.1662968" lon="19.9499671">
        <ele>25.6123</ele>
        <time>2012-06-21T19:11:17Z</time>
      </trkpt>
      <trkpt lat="60.1663379" lon="19.9504934">
        <ele>23.209</ele>
        <time>2012-06-21T19:11:24Z</time>
      </trkpt>
      <trkpt lat="60.1663298" lon="19.9508475">
        <ele>22.2476</ele>
        <time>2012-06-21T19:11:29Z</time>
      </trkpt>
      <trkpt lat="60.1663064" lon="19.9512643">
        <ele>22.2476</ele>
        <time>2012-06-21T19:11:35Z</time>
      </trkpt>
      <trkpt lat="60.1662753" lon="19.9517325">
        <ele>23.6896</ele>
        <time>2012-06-21T19:11:42Z</time>
      </trkpt>
      <trkpt lat="60.1662371" lon="19.9522081">
        <ele>23.209</ele>
        <time>2012-06-21T19:11:49Z</time>
      </trkpt>
      <trkpt lat="60.1662101" lon="19.9525451">
        <ele>22.7283</ele>
        <time>2012-06-21T19:11:54Z</time>
      </trkpt>
      <trkpt lat="60.1661739" lon="19.9529943">
        <ele>22.2476</ele>
        <time>2012-06-21T19:12:01Z</time>
      </trkpt>
      <trkpt lat="60.1661309" lon="19.9535116">
        <ele>22.2476</ele>
        <time>2012-06-21T19:12:09Z</time>
      </trkpt>
      <trkpt lat="60.1661014" lon="19.9538407">
        <ele>21.767</ele>
        <time>2012-06-21T19:12:14Z</time>
      </trkpt>
      <trkpt lat="60.1660602" lon="19.9543711">
        <ele>21.767</ele>
        <time>2012-06-21T19:12:22Z</time>
      </trkpt>
      <trkpt lat="60.1660219" lon="19.9548836">
        <ele>20.8057</ele>
        <time>2012-06-21T19:12:30Z</time>
      </trkpt>
      <trkpt lat="60.1659939" lon="19.9553273">
        <ele>19.8444</ele>
        <time>2012-06-21T19:12:37Z</time>
      </trkpt>
      <trkpt lat="60.1659896" lon="19.9556998">
        <ele>19.8444</ele>
        <time>2012-06-21T19:12:43Z</time>
      </trkpt>
      <trkpt lat="60.1660154" lon="19.9560748">
        <ele>19.8444</ele>
        <time>2012-06-21T19:12:49Z</time>
      </trkpt>
      <trkpt lat="60.1660734" lon="19.9564308">
        <ele>19.8444</ele>
        <time>2012-06-21T19:12:55Z</time>
      </trkpt>
      <trkpt lat="60.1661537" lon="19.9568442">
        <ele>19.3638</ele>
        <time>2012-06-21T19:13:02Z</time>
      </trkpt>
      <trkpt lat="60.1662106" lon="19.9571295">
        <ele>19.3638</ele>
        <time>2012-06-21T19:13:07Z</time>
      </trkpt>
      <trkpt lat="60.1662697" lon="19.9574228">
        <ele>20.325</ele>
        <time>2012-06-21T19:13:12Z</time>
      </trkpt>
      <trkpt lat="60.1663407" lon="19.9577702">
        <ele>20.8057</ele>
        <time>2012-06-21T19:13:18Z</time>
      </trkpt>
      <trkpt lat="60.1664484" lon="19.9582261">
        <ele>20.8057</ele>
        <time>2012-06-21T19:13:26Z</time>
      </trkpt>
      <trkpt lat="60.1665624" lon="19.9586008">
        <ele>20.325</ele>
        <time>2012-06-21T19:13:33Z</time>
      </trkpt>
      <trkpt lat="60.1666552" lon="19.9588468">
        <ele>19.3638</ele>
        <time>2012-06-21T19:13:38Z</time>
      </trkpt>
      <trkpt lat="60.1667996" lon="19.9591789">
        <ele>19.3638</ele>
        <time>2012-06-21T19:13:45Z</time>
      </trkpt>
      <trkpt lat="60.1669233" lon="19.959469">
        <ele>18.4023</ele>
        <time>2012-06-21T19:13:51Z</time>
      </trkpt>
      <trkpt lat="60.1670486" lon="19.9597555">
        <ele>17.4412</ele>
        <time>2012-06-21T19:13:57Z</time>
      </trkpt>
      <trkpt lat="60.1671947" lon="19.9600814">
        <ele>17.9218</ele>
        <time>2012-06-21T19:14:04Z</time>
      </trkpt>
      <trkpt lat="60.1673299" lon="19.9603325">
        <ele>18.4023</ele>
        <time>2012-06-21T19:14:10Z</time>
      </trkpt>
      <trkpt lat="60.16747" lon="19.960568">
        <ele>18.8831</ele>
        <time>2012-06-21T19:14:16Z</time>
      </trkpt>
      <trkpt lat="60.1676129" lon="19.9607769">
        <ele>17.9218</ele>
        <time>2012-06-21T19:14:22Z</time>
      </trkpt>
      <trkpt lat="60.1677667" lon="19.9609553">
        <ele>17.4412</ele>
        <time>2012-06-21T19:14:28Z</time>
      </trkpt>
      <trkpt lat="60.1679547" lon="19.9611357">
        <ele>16.9604</ele>
        <time>2012-06-21T19:14:35Z</time>
      </trkpt>
      <trkpt lat="60.1681206" lon="19.9612861">
        <ele>17.4412</ele>
        <time>2012-06-21T19:14:41Z</time>
      </trkpt>
      <trkpt lat="60.1682877" lon="19.9614337">
        <ele>18.4023</ele>
        <time>2012-06-21T19:14:47Z</time>
      </trkpt>
      <trkpt lat="60.1684781" lon="19.9616254">
        <ele>18.8831</ele>
        <time>2012-06-21T19:14:54Z</time>
      </trkpt>
      <trkpt lat="60.1686299" lon="19.9618267">
        <ele>18.8831</ele>
        <time>2012-06-21T19:15:00Z</time>
      </trkpt>
      <trkpt lat="60.1687909" lon="19.9621055">
        <ele>18.4023</ele>
        <time>2012-06-21T19:15:07Z</time>
      </trkpt>
      <trkpt lat="60.1689281" lon="19.9624294">
        <ele>17.9218</ele>
        <time>2012-06-21T19:15:14Z</time>
      </trkpt>
      <trkpt lat="60.1690773" lon="19.9628209">
        <ele>17.9218</ele>
        <time>2012-06-21T19:15:22Z</time>
      </trkpt>
      <trkpt lat="60.1691736" lon="19.963067">
        <ele>16.4797</ele>
        <time>2012-06-21T19:15:27Z</time>
      </trkpt>
      <trkpt lat="60.1692923" lon="19.9633668">
        <ele>15.999</ele>
        <time>2012-06-21T19:15:33Z</time>
      </trkpt>
      <trkpt lat="60.1694098" lon="19.9636652">
        <ele>15.999</ele>
        <time>2012-06-21T19:15:39Z</time>
      </trkpt>
      <trkpt lat="60.1695084" lon="19.9638994">
        <ele>15.999</ele>
        <time>2012-06-21T19:15:44Z</time>
      </trkpt>
      <trkpt lat="60.1696286" lon="19.9641777">
        <ele>15.999</ele>
        <time>2012-06-21T19:15:50Z</time>
      </trkpt>
      <trkpt lat="60.1697597" lon="19.9644388">
        <ele>16.4797</ele>
        <time>2012-06-21T19:15:56Z</time>
      </trkpt>
      <trkpt lat="60.1699192" lon="19.9647361">
        <ele>16.4797</ele>
        <time>2012-06-21T19:16:03Z</time>
      </trkpt>
      <trkpt lat="60.170061" lon="19.9649791">
        <ele>16.4797</ele>
        <time>2012-06-21T19:16:09Z</time>
      </trkpt>
      <trkpt lat="60.1702128" lon="19.9652608">
        <ele>15.999</ele>
        <time>2012-06-21T19:16:16Z</time>
      </trkpt>
      <trkpt lat="60.1703605" lon="19.9655562">
        <ele>15.999</ele>
        <time>2012-06-21T19:16:23Z</time>
      </trkpt>
      <trkpt lat="60.1705163" lon="19.9658234">
        <ele>15.5184</ele>
        <time>2012-06-21T19:16:30Z</time>
      </trkpt>
      <trkpt lat="60.1706826" lon="19.9660595">
        <ele>14.557</ele>
        <time>2012-06-21T19:16:37Z</time>
      </trkpt>
      <trkpt lat="60.1708565" lon="19.9662786">
        <ele>14.0764</ele>
        <time>2012-06-21T19:16:44Z</time>
      </trkpt>
      <trkpt lat="60.1709927" lon="19.9664222">
        <ele>13.1151</ele>
        <time>2012-06-21T19:16:49Z</time>
      </trkpt>
      <trkpt lat="60.1711566" lon="19.9666051">
        <ele>11.6732</ele>
        <time>2012-06-21T19:16:55Z</time>
      </trkpt>
      <trkpt lat="60.1713006" lon="19.9668004">
        <ele>8.78918</ele>
        <time>2012-06-21T19:17:01Z</time>
      </trkpt>
      <trkpt lat="60.1714294" lon="19.9669931">
        <ele>8.30859</ele>
        <time>2012-06-21T19:17:06Z</time>
      </trkpt>
      <trkpt lat="60.1715978" lon="19.9672758">
        <ele>8.30859</ele>
        <time>2012-06-21T19:17:13Z</time>
      </trkpt>
      <trkpt lat="60.1717382" lon="19.9675893">
        <ele>10.7118</ele>
        <time>2012-06-21T19:17:20Z</time>
      </trkpt>
      <trkpt lat="60.171857" lon="19.967853">
        <ele>12.1538</ele>
        <time>2012-06-21T19:17:26Z</time>
      </trkpt>
      <trkpt lat="60.1719479" lon="19.9681048">
        <ele>12.6344</ele>
        <time>2012-06-21T19:17:31Z</time>
      </trkpt>
      <trkpt lat="60.1720603" lon="19.9683875">
        <ele>14.0764</ele>
        <time>2012-06-21T19:17:37Z</time>
      </trkpt>
      <trkpt lat="60.1721248" lon="19.9685896">
        <ele>14.557</ele>
        <time>2012-06-21T19:17:41Z</time>
      </trkpt>
      <trkpt lat="60.1721969" lon="19.9687886">
        <ele>15.0377</ele>
        <time>2012-06-21T19:17:45Z</time>
      </trkpt>
      <trkpt lat="60.1722915" lon="19.9690355">
        <ele>15.5184</ele>
        <time>2012-06-21T19:17:50Z</time>
      </trkpt>
      <trkpt lat="60.1724061" lon="19.9694081">
        <ele>15.999</ele>
        <time>2012-06-21T19:17:57Z</time>
      </trkpt>
      <trkpt lat="60.1725423" lon="19.969835">
        <ele>15.999</ele>
        <time>2012-06-21T19:18:05Z</time>
      </trkpt>
      <trkpt lat="60.1726241" lon="19.9701053">
        <ele>15.5184</ele>
        <time>2012-06-21T19:18:10Z</time>
      </trkpt>
      <trkpt lat="60.172748" lon="19.9705564">
        <ele>15.999</ele>
        <time>2012-06-21T19:18:18Z</time>
      </trkpt>
      <trkpt lat="60.1728198" lon="19.9708382">
        <ele>16.9604</ele>
        <time>2012-06-21T19:18:23Z</time>
      </trkpt>
      <trkpt lat="60.1729043" lon="19.9712397">
        <ele>17.9218</ele>
        <time>2012-06-21T19:18:30Z</time>
      </trkpt>
      <trkpt lat="60.1729588" lon="19.9715324">
        <ele>19.3638</ele>
        <time>2012-06-21T19:18:35Z</time>
      </trkpt>
      <trkpt lat="60.1730285" lon="19.9718718">
        <ele>20.325</ele>
        <time>2012-06-21T19:18:41Z</time>
      </trkpt>
      <trkpt lat="60.1730922" lon="19.9722079">
        <ele>20.325</ele>
        <time>2012-06-21T19:18:47Z</time>
      </trkpt>
      <trkpt lat="60.1731577" lon="19.9726226">
        <ele>20.8057</ele>
        <time>2012-06-21T19:18:54Z</time>
      </trkpt>
      <trkpt lat="60.173201" lon="19.972976">
        <ele>20.325</ele>
        <time>2012-06-21T19:19:00Z</time>
      </trkpt>
      <trkpt lat="60.1732458" lon="19.9733936">
        <ele>19.8444</ele>
        <time>2012-06-21T19:19:07Z</time>
      </trkpt>
      <trkpt lat="60.1732842" lon="19.9738048">
        <ele>19.3638</ele>
        <time>2012-06-21T19:19:14Z</time>
      </trkpt>
      <trkpt lat="60.1733131" lon="19.9742108">
        <ele>17.4412</ele>
        <time>2012-06-21T19:19:21Z</time>
      </trkpt>
      <trkpt lat="60.1733369" lon="19.9745705">
        <ele>16.9604</ele>
        <time>2012-06-21T19:19:27Z</time>
      </trkpt>
      <trkpt lat="60.1733597" lon="19.9748773">
        <ele>17.4412</ele>
        <time>2012-06-21T19:19:32Z</time>
      </trkpt>
      <trkpt lat="60.1733854" lon="19.975238">
        <ele>17.4412</ele>
        <time>2012-06-21T19:19:38Z</time>
      </trkpt>
      <trkpt lat="60.1734295" lon="19.9756387">
        <ele>18.4023</ele>
        <time>2012-06-21T19:19:45Z</time>
      </trkpt>
      <trkpt lat="60.1735121" lon="19.9759966">
        <ele>19.3638</ele>
        <time>2012-06-21T19:19:52Z</time>
      </trkpt>
      <trkpt lat="60.1736125" lon="19.9762458">
        <ele>18.4023</ele>
        <time>2012-06-21T19:19:58Z</time>
      </trkpt>
      <trkpt lat="60.1737907" lon="19.9764983">
        <ele>17.4412</ele>
        <time>2012-06-21T19:20:06Z</time>
      </trkpt>
      <trkpt lat="60.1739084" lon="19.9766426">
        <ele>16.4797</ele>
        <time>2012-06-21T19:20:11Z</time>
      </trkpt>
      <trkpt lat="60.1740257" lon="19.9767881">
        <ele>15.999</ele>
        <time>2012-06-21T19:20:16Z</time>
      </trkpt>
      <trkpt lat="60.1741602" lon="19.9769595">
        <ele>15.999</ele>
        <time>2012-06-21T19:20:22Z</time>
      </trkpt>
      <trkpt lat="60.1742621" lon="19.9770954">
        <ele>15.5184</ele>
        <time>2012-06-21T19:20:27Z</time>
      </trkpt>
      <trkpt lat="60.1743656" lon="19.9772638">
        <ele>15.999</ele>
        <time>2012-06-21T19:20:31Z</time>
      </trkpt>
      <trkpt lat="60.1744657" lon="19.9774811">
        <ele>15.0377</ele>
        <time>2012-06-21T19:20:36Z</time>
      </trkpt>
      <trkpt lat="60.1745589" lon="19.9777045">
        <ele>16.9604</ele>
        <time>2012-06-21T19:20:41Z</time>
      </trkpt>
      <trkpt lat="60.1746465" lon="19.9780453">
        <ele>17.4412</ele>
        <time>2012-06-21T19:20:47Z</time>
      </trkpt>
      <trkpt lat="60.1747045" lon="19.9783365">
        <ele>18.4023</ele>
        <time>2012-06-21T19:20:52Z</time>
      </trkpt>
      <trkpt lat="60.1747318" lon="19.9786389">
        <ele>20.325</ele>
        <time>2012-06-21T19:20:57Z</time>
      </trkpt>
      <trkpt lat="60.1746512" lon="19.9788208">
        <ele>20.8057</ele>
        <time>2012-06-21T19:21:01Z</time>
      </trkpt>
      <trkpt lat="60.174504" lon="19.9789414">
        <ele>20.8057</ele>
        <time>2012-06-21T19:21:06Z</time>
      </trkpt>
      <trkpt lat="60.174289" lon="19.9790573">
        <ele>19.8444</ele>
        <time>2012-06-21T19:21:13Z</time>
      </trkpt>
      <trkpt lat="60.1741107" lon="19.9791519">
        <ele>19.8444</ele>
        <time>2012-06-21T19:21:19Z</time>
      </trkpt>
      <trkpt lat="60.1739384" lon="19.9792303">
        <ele>19.3638</ele>
        <time>2012-06-21T19:21:25Z</time>
      </trkpt>
      <trkpt lat="60.1737373" lon="19.9793156">
        <ele>19.3638</ele>
        <time>2012-06-21T19:21:32Z</time>
      </trkpt>
      <trkpt lat="60.1735864" lon="19.9793352">
        <ele>18.8831</ele>
        <time>2012-06-21T19:21:37Z</time>
      </trkpt>
      <trkpt lat="60.1734451" lon="19.979299">
        <ele>17.9218</ele>
        <time>2012-06-21T19:21:42Z</time>
      </trkpt>
      <trkpt lat="60.1732354" lon="19.9792132">
        <ele>17.4412</ele>
        <time>2012-06-21T19:21:49Z</time>
      </trkpt>
      <trkpt lat="60.1730545" lon="19.9791305">
        <ele>16.4797</ele>
        <time>2012-06-21T19:21:55Z</time>
      </trkpt>
      <trkpt lat="60.1728772" lon="19.9790389">
        <ele>15.5184</ele>
        <time>2012-06-21T19:22:01Z</time>
      </trkpt>
      <trkpt lat="60.1726682" lon="19.9789468">
        <ele>15.0377</ele>
        <time>2012-06-21T19:22:08Z</time>
      </trkpt>
      <trkpt lat="60.1724879" lon="19.9788717">
        <ele>14.0764</ele>
        <time>2012-06-21T19:22:14Z</time>
      </trkpt>
      <trkpt lat="60.1723445" lon="19.9788283">
        <ele>13.5958</ele>
        <time>2012-06-21T19:22:19Z</time>
      </trkpt>
      <trkpt lat="60.1722211" lon="19.9787732">
        <ele>11.1925</ele>
        <time>2012-06-21T19:22:24Z</time>
      </trkpt>
      <trkpt lat="60.1720864" lon="19.9787752">
        <ele>7.82788</ele>
        <time>2012-06-21T19:22:29Z</time>
      </trkpt>
      <trkpt lat="60.1719391" lon="19.9787888">
        <ele>5.90527</ele>
        <time>2012-06-21T19:22:34Z</time>
      </trkpt>
      <trkpt lat="60.1717963" lon="19.9788168">
        <ele>4.94385</ele>
        <time>2012-06-21T19:22:39Z</time>
      </trkpt>
      <trkpt lat="60.1716269" lon="19.9788622">
        <ele>3.50195</ele>
        <time>2012-06-21T19:22:45Z</time>
      </trkpt>
      <trkpt lat="60.1714841" lon="19.9789025">
        <ele>2.06006</ele>
        <time>2012-06-21T19:22:50Z</time>
      </trkpt>
      <trkpt lat="60.1712592" lon="19.9789646">
        <ele>3.50195</ele>
        <time>2012-06-21T19:22:57Z</time>
      </trkpt>
      <trkpt lat="60.1710249" lon="19.979011">
        <ele>5.90527</ele>
        <time>2012-06-21T19:23:04Z</time>
      </trkpt>
      <trkpt lat="60.17089" lon="19.9790544">
        <ele>8.30859</ele>
        <time>2012-06-21T19:23:08Z</time>
      </trkpt>
      <trkpt lat="60.1706802" lon="19.9791141">
        <ele>10.7118</ele>
        <time>2012-06-21T19:23:14Z</time>
      </trkpt>
      <trkpt lat="60.1704837" lon="19.9791569">
        <ele>12.6344</ele>
        <time>2012-06-21T19:23:20Z</time>
      </trkpt>
      <trkpt lat="60.1702898" lon="19.9791951">
        <ele>13.1151</ele>
        <time>2012-06-21T19:23:26Z</time>
      </trkpt>
      <trkpt lat="60.1701305" lon="19.979229">
        <ele>13.5958</ele>
        <time>2012-06-21T19:23:31Z</time>
      </trkpt>
      <trkpt lat="60.1699108" lon="19.9792771">
        <ele>14.557</ele>
        <time>2012-06-21T19:23:38Z</time>
      </trkpt>
      <trkpt lat="60.1697218" lon="19.9793192">
        <ele>15.0377</ele>
        <time>2012-06-21T19:23:44Z</time>
      </trkpt>
      <trkpt lat="60.1695276" lon="19.9793642">
        <ele>15.5184</ele>
        <time>2012-06-21T19:23:50Z</time>
      </trkpt>
      <trkpt lat="60.1693053" lon="19.9794244">
        <ele>15.5184</ele>
        <time>2012-06-21T19:23:57Z</time>
      </trkpt>
      <trkpt lat="60.1691176" lon="19.9794723">
        <ele>15.5184</ele>
        <time>2012-06-21T19:24:03Z</time>
      </trkpt>
      <trkpt lat="60.1689587" lon="19.9795093">
        <ele>15.5184</ele>
        <time>2012-06-21T19:24:08Z</time>
      </trkpt>
      <trkpt lat="60.1688016" lon="19.9795544">
        <ele>15.999</ele>
        <time>2012-06-21T19:24:13Z</time>
      </trkpt>
      <trkpt lat="60.1686163" lon="19.9796139">
        <ele>16.9604</ele>
        <time>2012-06-21T19:24:19Z</time>
      </trkpt>
      <trkpt lat="60.1684094" lon="19.9797121">
        <ele>16.9604</ele>
        <time>2012-06-21T19:24:26Z</time>
      </trkpt>
      <trkpt lat="60.1682397" lon="19.9798247">
        <ele>17.4412</ele>
        <time>2012-06-21T19:24:32Z</time>
      </trkpt>
      <trkpt lat="60.1681031" lon="19.9799442">
        <ele>17.4412</ele>
        <time>2012-06-21T19:24:37Z</time>
      </trkpt>
      <trkpt lat="60.167919" lon="19.9801258">
        <ele>17.4412</ele>
        <time>2012-06-21T19:24:44Z</time>
      </trkpt>
      <trkpt lat="60.1677388" lon="19.980336">
        <ele>17.9218</ele>
        <time>2012-06-21T19:24:51Z</time>
      </trkpt>
      <trkpt lat="60.1675859" lon="19.9805288">
        <ele>18.8831</ele>
        <time>2012-06-21T19:24:57Z</time>
      </trkpt>
      <trkpt lat="60.1674372" lon="19.9807223">
        <ele>19.3638</ele>
        <time>2012-06-21T19:25:03Z</time>
      </trkpt>
      <trkpt lat="60.1672601" lon="19.9809722">
        <ele>19.8444</ele>
        <time>2012-06-21T19:25:10Z</time>
      </trkpt>
      <trkpt lat="60.1670856" lon="19.9812155">
        <ele>19.8444</ele>
        <time>2012-06-21T19:25:17Z</time>
      </trkpt>
      <trkpt lat="60.1668977" lon="19.9814611">
        <ele>19.3638</ele>
        <time>2012-06-21T19:25:24Z</time>
      </trkpt>
      <trkpt lat="60.1667658" lon="19.9816263">
        <ele>18.8831</ele>
        <time>2012-06-21T19:25:29Z</time>
      </trkpt>
      <trkpt lat="60.166558" lon="19.9818947">
        <ele>17.4412</ele>
        <time>2012-06-21T19:25:37Z</time>
      </trkpt>
      <trkpt lat="60.166426" lon="19.9820719">
        <ele>17.4412</ele>
        <time>2012-06-21T19:25:42Z</time>
      </trkpt>
      <trkpt lat="60.166255" lon="19.9822464">
        <ele>16.9604</ele>
        <time>2012-06-21T19:25:48Z</time>
      </trkpt>
      <trkpt lat="60.1661382" lon="19.9823649">
        <ele>17.4412</ele>
        <time>2012-06-21T19:25:52Z</time>
      </trkpt>
      <trkpt lat="60.1659004" lon="19.982524">
        <ele>16.9604</ele>
        <time>2012-06-21T19:26:00Z</time>
      </trkpt>
      <trkpt lat="60.1657316" lon="19.982609">
        <ele>16.4797</ele>
        <time>2012-06-21T19:26:06Z</time>
      </trkpt>
      <trkpt lat="60.1655811" lon="19.9826935">
        <ele>14.557</ele>
        <time>2012-06-21T19:26:12Z</time>
      </trkpt>
      <trkpt lat="60.1654537" lon="19.9827494">
        <ele>12.6344</ele>
        <time>2012-06-21T19:26:17Z</time>
      </trkpt>
      <trkpt lat="60.1652679" lon="19.9828336">
        <ele>11.6732</ele>
        <time>2012-06-21T19:26:23Z</time>
      </trkpt>
      <trkpt lat="60.165087" lon="19.9829401">
        <ele>12.6344</ele>
        <time>2012-06-21T19:26:29Z</time>
      </trkpt>
      <trkpt lat="60.1649379" lon="19.9830663">
        <ele>13.1151</ele>
        <time>2012-06-21T19:26:34Z</time>
      </trkpt>
      <trkpt lat="60.1647705" lon="19.9832151">
        <ele>14.0764</ele>
        <time>2012-06-21T19:26:40Z</time>
      </trkpt>
      <trkpt lat="60.1646388" lon="19.9833337">
        <ele>13.1151</ele>
        <time>2012-06-21T19:26:45Z</time>
      </trkpt>
      <trkpt lat="60.1645339" lon="19.983472">
        <ele>12.6344</ele>
        <time>2012-06-21T19:26:49Z</time>
      </trkpt>
      <trkpt lat="60.1643964" lon="19.9836176">
        <ele>12.1538</ele>
        <time>2012-06-21T19:26:54Z</time>
      </trkpt>
      <trkpt lat="60.1642731" lon="19.9837538">
        <ele>9.2699</ele>
        <time>2012-06-21T19:26:59Z</time>
      </trkpt>
      <trkpt lat="60.1641527" lon="19.9838827">
        <ele>5.42456</ele>
        <time>2012-06-21T19:27:04Z</time>
      </trkpt>
      <trkpt lat="60.1640366" lon="19.9840361">
        <ele>2.54065</ele>
        <time>2012-06-21T19:27:09Z</time>
      </trkpt>
      <trkpt lat="60.1638504" lon="19.9842322">
        <ele>2.06006</ele>
        <time>2012-06-21T19:27:16Z</time>
      </trkpt>
      <trkpt lat="60.163645" lon="19.9844241">
        <ele>4.94385</ele>
        <time>2012-06-21T19:27:23Z</time>
      </trkpt>
      <trkpt lat="60.1634947" lon="19.9845773">
        <ele>7.34717</ele>
        <time>2012-06-21T19:27:28Z</time>
      </trkpt>
      <trkpt lat="60.1632861" lon="19.9847841">
        <ele>8.78918</ele>
        <time>2012-06-21T19:27:35Z</time>
      </trkpt>
      <trkpt lat="60.1631332" lon="19.9849179">
        <ele>9.75061</ele>
        <time>2012-06-21T19:27:40Z</time>
      </trkpt>
      <trkpt lat="60.1629508" lon="19.9850543">
        <ele>11.1925</ele>
        <time>2012-06-21T19:27:46Z</time>
      </trkpt>
      <trkpt lat="60.1627949" lon="19.9851409">
        <ele>12.1538</ele>
        <time>2012-06-21T19:27:51Z</time>
      </trkpt>
      <trkpt lat="60.1625835" lon="19.9852151">
        <ele>12.6344</ele>
        <time>2012-06-21T19:27:58Z</time>
      </trkpt>
      <trkpt lat="60.1623986" lon="19.9852441">
        <ele>13.1151</ele>
        <time>2012-06-21T19:28:04Z</time>
      </trkpt>
      <trkpt lat="60.1622484" lon="19.9852543">
        <ele>13.1151</ele>
        <time>2012-06-21T19:28:09Z</time>
      </trkpt>
      <trkpt lat="60.162041" lon="19.9852549">
        <ele>13.1151</ele>
        <time>2012-06-21T19:28:16Z</time>
      </trkpt>
      <trkpt lat="60.1618613" lon="19.985242">
        <ele>13.1151</ele>
        <time>2012-06-21T19:28:22Z</time>
      </trkpt>
      <trkpt lat="60.161709" lon="19.9852265">
        <ele>13.1151</ele>
        <time>2012-06-21T19:28:27Z</time>
      </trkpt>
      <trkpt lat="60.1615241" lon="19.9852188">
        <ele>14.0764</ele>
        <time>2012-06-21T19:28:33Z</time>
      </trkpt>
      <trkpt lat="60.1613111" lon="19.9852079">
        <ele>15.0377</ele>
        <time>2012-06-21T19:28:40Z</time>
      </trkpt>
      <trkpt lat="60.1611596" lon="19.9851843">
        <ele>15.999</ele>
        <time>2012-06-21T19:28:45Z</time>
      </trkpt>
      <trkpt lat="60.1609442" lon="19.9851269">
        <ele>16.4797</ele>
        <time>2012-06-21T19:28:52Z</time>
      </trkpt>
      <trkpt lat="60.1607655" lon="19.9850616">
        <ele>16.9604</ele>
        <time>2012-06-21T19:28:58Z</time>
      </trkpt>
      <trkpt lat="60.1605825" lon="19.9849916">
        <ele>16.4797</ele>
        <time>2012-06-21T19:29:04Z</time>
      </trkpt>
      <trkpt lat="60.160427" lon="19.9849297">
        <ele>16.4797</ele>
        <time>2012-06-21T19:29:09Z</time>
      </trkpt>
      <trkpt lat="60.1602122" lon="19.9848447">
        <ele>16.9604</ele>
        <time>2012-06-21T19:29:16Z</time>
      </trkpt>
      <trkpt lat="60.1599995" lon="19.9847535">
        <ele>17.4412</ele>
        <time>2012-06-21T19:29:23Z</time>
      </trkpt>
      <trkpt lat="60.1598201" lon="19.984682">
        <ele>17.9218</ele>
        <time>2012-06-21T19:29:29Z</time>
      </trkpt>
      <trkpt lat="60.1596447" lon="19.9845848">
        <ele>17.9218</ele>
        <time>2012-06-21T19:29:35Z</time>
      </trkpt>
      <trkpt lat="60.1594693" lon="19.9844661">
        <ele>17.4412</ele>
        <time>2012-06-21T19:29:41Z</time>
      </trkpt>
      <trkpt lat="60.159232" lon="19.9842742">
        <ele>17.4412</ele>
        <time>2012-06-21T19:29:49Z</time>
      </trkpt>
      <trkpt lat="60.1590429" lon="19.9840641">
        <ele>15.999</ele>
        <time>2012-06-21T19:29:56Z</time>
      </trkpt>
      <trkpt lat="60.1589117" lon="19.9839169">
        <ele>13.5958</ele>
        <time>2012-06-21T19:30:01Z</time>
      </trkpt>
      <trkpt lat="60.1587486" lon="19.9837171">
        <ele>12.1538</ele>
        <time>2012-06-21T19:30:07Z</time>
      </trkpt>
      <trkpt lat="60.1585481" lon="19.9834949">
        <ele>12.1538</ele>
        <time>2012-06-21T19:30:14Z</time>
      </trkpt>
      <trkpt lat="60.1583773" lon="19.9833078">
        <ele>13.5958</ele>
        <time>2012-06-21T19:30:20Z</time>
      </trkpt>
      <trkpt lat="60.1582029" lon="19.9831461">
        <ele>15.0377</ele>
        <time>2012-06-21T19:30:26Z</time>
      </trkpt>
      <trkpt lat="60.1580267" lon="19.9830129">
        <ele>15.999</ele>
        <time>2012-06-21T19:30:32Z</time>
      </trkpt>
      <trkpt lat="60.1578671" lon="19.9829105">
        <ele>16.4797</ele>
        <time>2012-06-21T19:30:38Z</time>
      </trkpt>
      <trkpt lat="60.1577034" lon="19.9828188">
        <ele>15.999</ele>
        <time>2012-06-21T19:30:44Z</time>
      </trkpt>
      <trkpt lat="60.1575598" lon="19.9827474">
        <ele>16.4797</ele>
        <time>2012-06-21T19:30:49Z</time>
      </trkpt>
      <trkpt lat="60.1573774" lon="19.9826903">
        <ele>18.8831</ele>
        <time>2012-06-21T19:30:55Z</time>
      </trkpt>
      <trkpt lat="60.1571987" lon="19.9826638">
        <ele>20.325</ele>
        <time>2012-06-21T19:31:01Z</time>
      </trkpt>
      <trkpt lat="60.1570246" lon="19.9826633">
        <ele>21.2864</ele>
        <time>2012-06-21T19:31:07Z</time>
      </trkpt>
      <trkpt lat="60.156816" lon="19.9826764">
        <ele>22.2476</ele>
        <time>2012-06-21T19:31:14Z</time>
      </trkpt>
      <trkpt lat="60.1566684" lon="19.9827126">
        <ele>22.2476</ele>
        <time>2012-06-21T19:31:19Z</time>
      </trkpt>
      <trkpt lat="60.1564612" lon="19.9827989">
        <ele>23.6896</ele>
        <time>2012-06-21T19:31:26Z</time>
      </trkpt>
      <trkpt lat="60.1563098" lon="19.9828777">
        <ele>24.651</ele>
        <time>2012-06-21T19:31:31Z</time>
      </trkpt>
      <trkpt lat="60.1561152" lon="19.9830862">
        <ele>26.0929</ele>
        <time>2012-06-21T19:31:38Z</time>
      </trkpt>
      <trkpt lat="60.155994" lon="19.9832823">
        <ele>26.5736</ele>
        <time>2012-06-21T19:31:43Z</time>
      </trkpt>
      <trkpt lat="60.1558541" lon="19.9835654">
        <ele>27.5349</ele>
        <time>2012-06-21T19:31:49Z</time>
      </trkpt>
      <trkpt lat="60.1557175" lon="19.9838398">
        <ele>27.0543</ele>
        <time>2012-06-21T19:31:55Z</time>
      </trkpt>
      <trkpt lat="60.1555692" lon="19.9841528">
        <ele>26.5736</ele>
        <time>2012-06-21T19:32:02Z</time>
      </trkpt>
      <trkpt lat="60.1554139" lon="19.9843654">
        <ele>27.0543</ele>
        <time>2012-06-21T19:32:08Z</time>
      </trkpt>
      <trkpt lat="60.1552644" lon="19.9844018">
        <ele>26.5736</ele>
        <time>2012-06-21T19:32:13Z</time>
      </trkpt>
      <trkpt lat="60.1550316" lon="19.9844594">
        <ele>27.5349</ele>
        <time>2012-06-21T19:32:21Z</time>
      </trkpt>
      <trkpt lat="60.1548615" lon="19.9845169">
        <ele>27.0543</ele>
        <time>2012-06-21T19:32:27Z</time>
      </trkpt>
      <trkpt lat="60.1547191" lon="19.9845634">
        <ele>25.6123</ele>
        <time>2012-06-21T19:32:32Z</time>
      </trkpt>
      <trkpt lat="60.154578" lon="19.9846124">
        <ele>25.6123</ele>
        <time>2012-06-21T19:32:37Z</time>
      </trkpt>
      <trkpt lat="60.1543804" lon="19.9846923">
        <ele>23.6896</ele>
        <time>2012-06-21T19:32:44Z</time>
      </trkpt>
      <trkpt lat="60.1542726" lon="19.9847189">
        <ele>23.6896</ele>
        <time>2012-06-21T19:32:48Z</time>
      </trkpt>
      <trkpt lat="60.1540809" lon="19.9847889">
        <ele>20.325</ele>
        <time>2012-06-21T19:32:55Z</time>
      </trkpt>
      <trkpt lat="60.1539509" lon="19.9847504">
        <ele>20.325</ele>
        <time>2012-06-21T19:33:00Z</time>
      </trkpt>
      <trkpt lat="60.1538349" lon="19.9847363">
        <ele>19.3638</ele>
        <time>2012-06-21T19:33:04Z</time>
      </trkpt>
      <trkpt lat="60.1536184" lon="19.9847215">
        <ele>17.4412</ele>
        <time>2012-06-21T19:33:11Z</time>
      </trkpt>
      <trkpt lat="60.1534628" lon="19.9846711">
        <ele>17.4412</ele>
        <time>2012-06-21T19:33:16Z</time>
      </trkpt>
      <trkpt lat="60.1532426" lon="19.9845516">
        <ele>19.8444</ele>
        <time>2012-06-21T19:33:23Z</time>
      </trkpt>
      <trkpt lat="60.1530398" lon="19.9844698">
        <ele>21.2864</ele>
        <time>2012-06-21T19:33:29Z</time>
      </trkpt>
      <trkpt lat="60.1528191" lon="19.9843536">
        <ele>24.1703</ele>
        <time>2012-06-21T19:33:36Z</time>
      </trkpt>
      <trkpt lat="60.1526455" lon="19.9842517">
        <ele>26.5736</ele>
        <time>2012-06-21T19:33:42Z</time>
      </trkpt>
      <trkpt lat="60.1524793" lon="19.9841615">
        <ele>28.0155</ele>
        <time>2012-06-21T19:33:48Z</time>
      </trkpt>
      <trkpt lat="60.152306" lon="19.9841105">
        <ele>29.4575</ele>
        <time>2012-06-21T19:33:54Z</time>
      </trkpt>
      <trkpt lat="60.1521399" lon="19.9840732">
        <ele>30.8995</ele>
        <time>2012-06-21T19:34:00Z</time>
      </trkpt>
      <trkpt lat="60.1519948" lon="19.9840656">
        <ele>31.3801</ele>
        <time>2012-06-21T19:34:05Z</time>
      </trkpt>
      <trkpt lat="60.1517919" lon="19.9840906">
        <ele>31.8607</ele>
        <time>2012-06-21T19:34:12Z</time>
      </trkpt>
      <trkpt lat="60.151642" lon="19.9841181">
        <ele>31.8607</ele>
        <time>2012-06-21T19:34:17Z</time>
      </trkpt>
      <trkpt lat="60.1514599" lon="19.9841645">
        <ele>33.3029</ele>
        <time>2012-06-21T19:34:23Z</time>
      </trkpt>
      <trkpt lat="60.1512888" lon="19.9842594">
        <ele>33.7834</ele>
        <time>2012-06-21T19:34:29Z</time>
      </trkpt>
      <trkpt lat="60.1511414" lon="19.984355">
        <ele>34.2642</ele>
        <time>2012-06-21T19:34:34Z</time>
      </trkpt>
      <trkpt lat="60.1509002" lon="19.9845361">
        <ele>32.3416</ele>
        <time>2012-06-21T19:34:43Z</time>
      </trkpt>
      <trkpt lat="60.1507345" lon="19.9846433">
        <ele>29.9381</ele>
        <time>2012-06-21T19:34:49Z</time>
      </trkpt>
      <trkpt lat="60.1505949" lon="19.9847096">
        <ele>28.4962</ele>
        <time>2012-06-21T19:34:54Z</time>
      </trkpt>
      <trkpt lat="60.1504127" lon="19.9848108">
        <ele>30.4188</ele>
        <time>2012-06-21T19:35:00Z</time>
      </trkpt>
      <trkpt lat="60.1502342" lon="19.984915">
        <ele>31.3801</ele>
        <time>2012-06-21T19:35:06Z</time>
      </trkpt>
      <trkpt lat="60.1500639" lon="19.9850188">
        <ele>33.3029</ele>
        <time>2012-06-21T19:35:12Z</time>
      </trkpt>
      <trkpt lat="60.1498565" lon="19.9851513">
        <ele>34.7449</ele>
        <time>2012-06-21T19:35:19Z</time>
      </trkpt>
      <trkpt lat="60.1497124" lon="19.9852721">
        <ele>35.7061</ele>
        <time>2012-06-21T19:35:24Z</time>
      </trkpt>
      <trkpt lat="60.1495385" lon="19.9854188">
        <ele>37.6287</ele>
        <time>2012-06-21T19:35:30Z</time>
      </trkpt>
      <trkpt lat="60.1493768" lon="19.9855492">
        <ele>38.5901</ele>
        <time>2012-06-21T19:35:36Z</time>
      </trkpt>
      <trkpt lat="60.1492541" lon="19.9856478">
        <ele>39.0707</ele>
        <time>2012-06-21T19:35:41Z</time>
      </trkpt>
      <trkpt lat="60.1491154" lon="19.9857837">
        <ele>38.1094</ele>
        <time>2012-06-21T19:35:47Z</time>
      </trkpt>
      <trkpt lat="60.1489962" lon="19.9858652">
        <ele>36.6675</ele>
        <time>2012-06-21T19:35:52Z</time>
      </trkpt>
      <trkpt lat="60.1488698" lon="19.9859527">
        <ele>35.2255</ele>
        <time>2012-06-21T19:35:57Z</time>
      </trkpt>
      <trkpt lat="60.1487258" lon="19.9860159">
        <ele>35.2255</ele>
        <time>2012-06-21T19:36:02Z</time>
      </trkpt>
      <trkpt lat="60.1485527" lon="19.9860448">
        <ele>36.6675</ele>
        <time>2012-06-21T19:36:08Z</time>
      </trkpt>
      <trkpt lat="60.1483306" lon="19.9860253">
        <ele>39.0707</ele>
        <time>2012-06-21T19:36:15Z</time>
      </trkpt>
      <trkpt lat="60.1481329" lon="19.9859564">
        <ele>38.5901</ele>
        <time>2012-06-21T19:36:21Z</time>
      </trkpt>
      <trkpt lat="60.1479466" lon="19.9858471">
        <ele>39.5513</ele>
        <time>2012-06-21T19:36:27Z</time>
      </trkpt>
      <trkpt lat="60.1477959" lon="19.9856947">
        <ele>39.0707</ele>
        <time>2012-06-21T19:36:33Z</time>
      </trkpt>
      <trkpt lat="60.1476301" lon="19.9855549">
        <ele>38.5901</ele>
        <time>2012-06-21T19:36:39Z</time>
      </trkpt>
      <trkpt lat="60.1474628" lon="19.9854006">
        <ele>36.6675</ele>
        <time>2012-06-21T19:36:45Z</time>
      </trkpt>
      <trkpt lat="60.1472751" lon="19.9851991">
        <ele>36.6675</ele>
        <time>2012-06-21T19:36:52Z</time>
      </trkpt>
      <trkpt lat="60.1470841" lon="19.9849472">
        <ele>34.7449</ele>
        <time>2012-06-21T19:37:00Z</time>
      </trkpt>
      <trkpt lat="60.1469121" lon="19.9846907">
        <ele>34.7449</ele>
        <time>2012-06-21T19:37:07Z</time>
      </trkpt>
      <trkpt lat="60.1467779" lon="19.9844921">
        <ele>37.1481</ele>
        <time>2012-06-21T19:37:12Z</time>
      </trkpt>
      <trkpt lat="60.1466144" lon="19.9842621">
        <ele>36.6675</ele>
        <time>2012-06-21T19:37:18Z</time>
      </trkpt>
      <trkpt lat="60.1465085" lon="19.984073">
        <ele>35.2255</ele>
        <time>2012-06-21T19:37:23Z</time>
      </trkpt>
      <trkpt lat="60.1463186" lon="19.9838071">
        <ele>34.2642</ele>
        <time>2012-06-21T19:37:30Z</time>
      </trkpt>
      <trkpt lat="60.1462124" lon="19.9836823">
        <ele>33.7834</ele>
        <time>2012-06-21T19:37:34Z</time>
      </trkpt>
      <trkpt lat="60.1460943" lon="19.9834863">
        <ele>34.2642</ele>
        <time>2012-06-21T19:37:39Z</time>
      </trkpt>
      <trkpt lat="60.1459115" lon="19.983211">
        <ele>34.2642</ele>
        <time>2012-06-21T19:37:46Z</time>
      </trkpt>
      <trkpt lat="60.1457458" lon="19.9829665">
        <ele>33.3029</ele>
        <time>2012-06-21T19:37:52Z</time>
      </trkpt>
      <trkpt lat="60.1456097" lon="19.9827587">
        <ele>34.2642</ele>
        <time>2012-06-21T19:37:57Z</time>
      </trkpt>
      <trkpt lat="60.1454512" lon="19.9825142">
        <ele>32.3416</ele>
        <time>2012-06-21T19:38:03Z</time>
      </trkpt>
      <trkpt lat="60.1452924" lon="19.98226">
        <ele>33.3029</ele>
        <time>2012-06-21T19:38:09Z</time>
      </trkpt>
      <trkpt lat="60.1451669" lon="19.9820892">
        <ele>33.3029</ele>
        <time>2012-06-21T19:38:14Z</time>
      </trkpt>
      <trkpt lat="60.1450176" lon="19.9818321">
        <ele>35.7061</ele>
        <time>2012-06-21T19:38:20Z</time>
      </trkpt>
      <trkpt lat="60.1448868" lon="19.9816331">
        <ele>37.1481</ele>
        <time>2012-06-21T19:38:25Z</time>
      </trkpt>
      <trkpt lat="60.1447081" lon="19.9813651">
        <ele>36.1868</ele>
        <time>2012-06-21T19:38:32Z</time>
      </trkpt>
      <trkpt lat="60.1446007" lon="19.9811626">
        <ele>35.2255</ele>
        <time>2012-06-21T19:38:37Z</time>
      </trkpt>
      <trkpt lat="60.1444667" lon="19.9809401">
        <ele>34.2642</ele>
        <time>2012-06-21T19:38:43Z</time>
      </trkpt>
      <trkpt lat="60.1443552" lon="19.9807503">
        <ele>32.3416</ele>
        <time>2012-06-21T19:38:48Z</time>
      </trkpt>
      <trkpt lat="60.1442263" lon="19.9805732">
        <ele>32.3416</ele>
        <time>2012-06-21T19:38:53Z</time>
      </trkpt>
      <trkpt lat="60.144094" lon="19.9803417">
        <ele>30.8995</ele>
        <time>2012-06-21T19:38:59Z</time>
      </trkpt>
      <trkpt lat="60.1440108" lon="19.9801768">
        <ele>29.9381</ele>
        <time>2012-06-21T19:39:03Z</time>
      </trkpt>
      <trkpt lat="60.1438744" lon="19.9800007">
        <ele>28.9769</ele>
        <time>2012-06-21T19:39:08Z</time>
      </trkpt>
      <trkpt lat="60.1437542" lon="19.979832">
        <ele>28.0155</ele>
        <time>2012-06-21T19:39:13Z</time>
      </trkpt>
      <trkpt lat="60.1436695" lon="19.9796634">
        <ele>26.5736</ele>
        <time>2012-06-21T19:39:17Z</time>
      </trkpt>
      <trkpt lat="60.1435378" lon="19.9792325">
        <ele>28.9769</ele>
        <time>2012-06-21T19:39:24Z</time>
      </trkpt>
      <trkpt lat="60.1434582" lon="19.9787886">
        <ele>31.3801</ele>
        <time>2012-06-21T19:39:30Z</time>
      </trkpt>
      <trkpt lat="60.1434082" lon="19.9784549">
        <ele>31.8607</ele>
        <time>2012-06-21T19:39:35Z</time>
      </trkpt>
      <trkpt lat="60.1433426" lon="19.978122">
        <ele>32.8223</ele>
        <time>2012-06-21T19:39:40Z</time>
      </trkpt>
      <trkpt lat="60.1432809" lon="19.9778656">
        <ele>32.3416</ele>
        <time>2012-06-21T19:39:44Z</time>
      </trkpt>
      <trkpt lat="60.1431989" lon="19.9775564">
        <ele>30.8995</ele>
        <time>2012-06-21T19:39:49Z</time>
      </trkpt>
      <trkpt lat="60.1431167" lon="19.9772599">
        <ele>30.4188</ele>
        <time>2012-06-21T19:39:54Z</time>
      </trkpt>
      <trkpt lat="60.1430068" lon="19.9769009">
        <ele>28.9769</ele>
        <time>2012-06-21T19:40:00Z</time>
      </trkpt>
      <trkpt lat="60.1429215" lon="19.9766368">
        <ele>29.4575</ele>
        <time>2012-06-21T19:40:05Z</time>
      </trkpt>
      <trkpt lat="60.1428132" lon="19.9763924">
        <ele>29.9381</ele>
        <time>2012-06-21T19:40:10Z</time>
      </trkpt>
      <trkpt lat="60.1427335" lon="19.9761814">
        <ele>28.4962</ele>
        <time>2012-06-21T19:40:14Z</time>
      </trkpt>
      <trkpt lat="60.1426339" lon="19.9759045">
        <ele>29.4575</ele>
        <time>2012-06-21T19:40:19Z</time>
      </trkpt>
      <trkpt lat="60.1425442" lon="19.9755356">
        <ele>29.9381</ele>
        <time>2012-06-21T19:40:25Z</time>
      </trkpt>
      <trkpt lat="60.1424594" lon="19.9751344">
        <ele>30.4188</ele>
        <time>2012-06-21T19:40:31Z</time>
      </trkpt>
      <trkpt lat="60.1424023" lon="19.9747533">
        <ele>32.8223</ele>
        <time>2012-06-21T19:40:37Z</time>
      </trkpt>
      <trkpt lat="60.1423561" lon="19.9744232">
        <ele>32.3416</ele>
        <time>2012-06-21T19:40:42Z</time>
      </trkpt>
      <trkpt lat="60.1423283" lon="19.9740364">
        <ele>33.3029</ele>
        <time>2012-06-21T19:40:48Z</time>
      </trkpt>
      <trkpt lat="60.142334" lon="19.9737137">
        <ele>32.3416</ele>
        <time>2012-06-21T19:40:53Z</time>
      </trkpt>
      <trkpt lat="60.1423649" lon="19.9732738">
        <ele>32.3416</ele>
        <time>2012-06-21T19:41:00Z</time>
      </trkpt>
      <trkpt lat="60.1424128" lon="19.9729067">
        <ele>31.3801</ele>
        <time>2012-06-21T19:41:06Z</time>
      </trkpt>
      <trkpt lat="60.1424506" lon="19.9726187">
        <ele>29.4575</ele>
        <time>2012-06-21T19:41:11Z</time>
      </trkpt>
      <trkpt lat="60.1425246" lon="19.9721981">
        <ele>25.1317</ele>
        <time>2012-06-21T19:41:18Z</time>
      </trkpt>
      <trkpt lat="60.142608" lon="19.9718182">
        <ele>24.651</ele>
        <time>2012-06-21T19:41:24Z</time>
      </trkpt>
      <trkpt lat="60.142708" lon="19.9714044">
        <ele>24.1703</ele>
        <time>2012-06-21T19:41:30Z</time>
      </trkpt>
      <trkpt lat="60.1428173" lon="19.9710522">
        <ele>23.6896</ele>
        <time>2012-06-21T19:41:36Z</time>
      </trkpt>
      <trkpt lat="60.1429185" lon="19.9708709">
        <ele>23.209</ele>
        <time>2012-06-21T19:41:40Z</time>
      </trkpt>
      <trkpt lat="60.1430929" lon="19.9706786">
        <ele>22.7283</ele>
        <time>2012-06-21T19:41:46Z</time>
      </trkpt>
      <trkpt lat="60.1432528" lon="19.9704651">
        <ele>22.2476</ele>
        <time>2012-06-21T19:41:52Z</time>
      </trkpt>
      <trkpt lat="60.1434427" lon="19.9701582">
        <ele>23.209</ele>
        <time>2012-06-21T19:41:59Z</time>
      </trkpt>
      <trkpt lat="60.1435648" lon="19.9699007">
        <ele>23.6896</ele>
        <time>2012-06-21T19:42:04Z</time>
      </trkpt>
      <trkpt lat="60.1436807" lon="19.9696245">
        <ele>25.1317</ele>
        <time>2012-06-21T19:42:09Z</time>
      </trkpt>
      <trkpt lat="60.1437811" lon="19.9693354">
        <ele>26.5736</ele>
        <time>2012-06-21T19:42:14Z</time>
      </trkpt>
      <trkpt lat="60.1438825" lon="19.9690107">
        <ele>27.0543</ele>
        <time>2012-06-21T19:42:19Z</time>
      </trkpt>
      <trkpt lat="60.1439657" lon="19.9687678">
        <ele>26.5736</ele>
        <time>2012-06-21T19:42:23Z</time>
      </trkpt>
      <trkpt lat="60.144047" lon="19.9684678">
        <ele>24.1703</ele>
        <time>2012-06-21T19:42:28Z</time>
      </trkpt>
      <trkpt lat="60.1441134" lon="19.9682248">
        <ele>23.209</ele>
        <time>2012-06-21T19:42:32Z</time>
      </trkpt>
      <trkpt lat="60.1442091" lon="19.9679144">
        <ele>22.2476</ele>
        <time>2012-06-21T19:42:37Z</time>
      </trkpt>
      <trkpt lat="60.1442937" lon="19.967622">
        <ele>20.325</ele>
        <time>2012-06-21T19:42:42Z</time>
      </trkpt>
      <trkpt lat="60.1443684" lon="19.9672983">
        <ele>18.4023</ele>
        <time>2012-06-21T19:42:47Z</time>
      </trkpt>
      <trkpt lat="60.1444413" lon="19.9669774">
        <ele>17.4412</ele>
        <time>2012-06-21T19:42:52Z</time>
      </trkpt>
      <trkpt lat="60.1445258" lon="19.9665925">
        <ele>16.4797</ele>
        <time>2012-06-21T19:42:58Z</time>
      </trkpt>
      <trkpt lat="60.1445863" lon="19.9662601">
        <ele>15.999</ele>
        <time>2012-06-21T19:43:03Z</time>
      </trkpt>
      <trkpt lat="60.1446559" lon="19.9658363">
        <ele>16.4797</ele>
        <time>2012-06-21T19:43:09Z</time>
      </trkpt>
      <trkpt lat="60.1447027" lon="19.9654841">
        <ele>18.4023</ele>
        <time>2012-06-21T19:43:14Z</time>
      </trkpt>
      <trkpt lat="60.1447455" lon="19.9651033">
        <ele>16.9604</ele>
        <time>2012-06-21T19:43:20Z</time>
      </trkpt>
      <trkpt lat="60.1447823" lon="19.9647463">
        <ele>14.0764</ele>
        <time>2012-06-21T19:43:26Z</time>
      </trkpt>
      <trkpt lat="60.1448187" lon="19.9643704">
        <ele>10.2312</ele>
        <time>2012-06-21T19:43:32Z</time>
      </trkpt>
      <trkpt lat="60.1448469" lon="19.9639268">
        <ele>6.86646</ele>
        <time>2012-06-21T19:43:39Z</time>
      </trkpt>
      <trkpt lat="60.1448973" lon="19.9633883">
        <ele>2.54065</ele>
        <time>2012-06-21T19:43:47Z</time>
      </trkpt>
      <trkpt lat="60.144922" lon="19.9630561">
        <ele>3.02124</ele>
        <time>2012-06-21T19:43:52Z</time>
      </trkpt>
      <trkpt lat="60.1449566" lon="19.9625739">
        <ele>7.82788</ele>
        <time>2012-06-21T19:43:59Z</time>
      </trkpt>
      <trkpt lat="60.144986" lon="19.9621912">
        <ele>13.5958</ele>
        <time>2012-06-21T19:44:04Z</time>
      </trkpt>
      <trkpt lat="60.1450192" lon="19.9617508">
        <ele>18.4023</ele>
        <time>2012-06-21T19:44:10Z</time>
      </trkpt>
      <trkpt lat="60.1450691" lon="19.9613369">
        <ele>20.325</ele>
        <time>2012-06-21T19:44:16Z</time>
      </trkpt>
      <trkpt lat="60.1451303" lon="19.9609307">
        <ele>19.8444</ele>
        <time>2012-06-21T19:44:22Z</time>
      </trkpt>
      <trkpt lat="60.1451987" lon="19.9605423">
        <ele>18.8831</ele>
        <time>2012-06-21T19:44:28Z</time>
      </trkpt>
      <trkpt lat="60.1452624" lon="19.9602138">
        <ele>18.8831</ele>
        <time>2012-06-21T19:44:33Z</time>
      </trkpt>
      <trkpt lat="60.1453302" lon="19.9598237">
        <ele>19.8444</ele>
        <time>2012-06-21T19:44:39Z</time>
      </trkpt>
      <trkpt lat="60.1454151" lon="19.9593794">
        <ele>21.767</ele>
        <time>2012-06-21T19:44:46Z</time>
      </trkpt>
      <trkpt lat="60.1454866" lon="19.959011">
        <ele>21.767</ele>
        <time>2012-06-21T19:44:52Z</time>
      </trkpt>
      <trkpt lat="60.1455478" lon="19.958662">
        <ele>20.8057</ele>
        <time>2012-06-21T19:44:58Z</time>
      </trkpt>
      <trkpt lat="60.1456125" lon="19.9583478">
        <ele>17.4412</ele>
        <time>2012-06-21T19:45:04Z</time>
      </trkpt>
      <trkpt lat="60.1456688" lon="19.9580594">
        <ele>12.1538</ele>
        <time>2012-06-21T19:45:09Z</time>
      </trkpt>
      <trkpt lat="60.1457384" lon="19.9577937">
        <ele>8.78918</ele>
        <time>2012-06-21T19:45:14Z</time>
      </trkpt>
      <trkpt lat="60.1457783" lon="19.9575293">
        <ele>6.86646</ele>
        <time>2012-06-21T19:45:18Z</time>
      </trkpt>
      <trkpt lat="60.1458362" lon="19.9572123">
        <ele>4.46326</ele>
        <time>2012-06-21T19:45:23Z</time>
      </trkpt>
      <trkpt lat="60.1459182" lon="19.9567645">
        <ele>1.09863</ele>
        <time>2012-06-21T19:45:30Z</time>
      </trkpt>
      <trkpt lat="60.1459957" lon="19.9563506">
        <ele>0</ele>
        <time>2012-06-21T19:45:36Z</time>
      </trkpt>
      <trkpt lat="60.1460628" lon="19.9559931">
        <ele>1.09863</ele>
        <time>2012-06-21T19:45:41Z</time>
      </trkpt>
      <trkpt lat="60.1461249" lon="19.9555703">
        <ele>7.34717</ele>
        <time>2012-06-21T19:45:47Z</time>
      </trkpt>
      <trkpt lat="60.1462036" lon="19.9551691">
        <ele>13.5958</ele>
        <time>2012-06-21T19:45:53Z</time>
      </trkpt>
      <trkpt lat="60.1462528" lon="19.9548571">
        <ele>16.9604</ele>
        <time>2012-06-21T19:45:58Z</time>
      </trkpt>
      <trkpt lat="60.1463121" lon="19.9544851">
        <ele>20.8057</ele>
        <time>2012-06-21T19:46:04Z</time>
      </trkpt>
      <trkpt lat="60.1463609" lon="19.9541612">
        <ele>22.2476</ele>
        <time>2012-06-21T19:46:09Z</time>
      </trkpt>
      <trkpt lat="60.1464103" lon="19.9538423">
        <ele>23.209</ele>
        <time>2012-06-21T19:46:14Z</time>
      </trkpt>
      <trkpt lat="60.1464501" lon="19.953609">
        <ele>24.651</ele>
        <time>2012-06-21T19:46:18Z</time>
      </trkpt>
      <trkpt lat="60.1464961" lon="19.9532922">
        <ele>26.0929</ele>
        <time>2012-06-21T19:46:23Z</time>
      </trkpt>
      <trkpt lat="60.1465215" lon="19.9528602">
        <ele>28.0155</ele>
        <time>2012-06-21T19:46:30Z</time>
      </trkpt>
      <trkpt lat="60.1466022" lon="19.9525976">
        <ele>28.4962</ele>
        <time>2012-06-21T19:46:35Z</time>
      </trkpt>
      <trkpt lat="60.1467479" lon="19.9524763">
        <ele>27.5349</ele>
        <time>2012-06-21T19:46:40Z</time>
      </trkpt>
      <trkpt lat="60.1468997" lon="19.9524754">
        <ele>26.5736</ele>
        <time>2012-06-21T19:46:45Z</time>
      </trkpt>
      <trkpt lat="60.1470205" lon="19.9525161">
        <ele>27.0543</ele>
        <time>2012-06-21T19:46:49Z</time>
      </trkpt>
      <trkpt lat="60.1472426" lon="19.9525541">
        <ele>28.0155</ele>
        <time>2012-06-21T19:46:56Z</time>
      </trkpt>
      <trkpt lat="60.1474323" lon="19.9525871">
        <ele>27.0543</ele>
        <time>2012-06-21T19:47:02Z</time>
      </trkpt>
      <trkpt lat="60.1475535" lon="19.9525559">
        <ele>27.5349</ele>
        <time>2012-06-21T19:47:06Z</time>
      </trkpt>
      <trkpt lat="60.1475805" lon="19.952264">
        <ele>28.4962</ele>
        <time>2012-06-21T19:47:11Z</time>
      </trkpt>
      <trkpt lat="60.147573" lon="19.9517986">
        <ele>29.4575</ele>
        <time>2012-06-21T19:47:18Z</time>
      </trkpt>
      <trkpt lat="60.1475741" lon="19.9515357">
        <ele>29.9381</ele>
        <time>2012-06-21T19:47:22Z</time>
      </trkpt>
      <trkpt lat="60.1476493" lon="19.9513947">
        <ele>30.4188</ele>
        <time>2012-06-21T19:47:26Z</time>
      </trkpt>
      <trkpt lat="60.1479104" lon="19.9513607">
        <ele>29.4575</ele>
        <time>2012-06-21T19:47:35Z</time>
      </trkpt>
      <trkpt lat="60.1480767" lon="19.9513352">
        <ele>28.4962</ele>
        <time>2012-06-21T19:47:40Z</time>
      </trkpt>
      <trkpt lat="60.1482656" lon="19.9513247">
        <ele>26.0929</ele>
        <time>2012-06-21T19:47:46Z</time>
      </trkpt>
      <trkpt lat="60.1484294" lon="19.9512927">
        <ele>27.0543</ele>
        <time>2012-06-21T19:47:51Z</time>
      </trkpt>
      <trkpt lat="60.1486858" lon="19.951158">
        <ele>32.3416</ele>
        <time>2012-06-21T19:47:58Z</time>
      </trkpt>
      <trkpt lat="60.1489194" lon="19.9510021">
        <ele>33.7834</ele>
        <time>2012-06-21T19:48:05Z</time>
      </trkpt>
      <trkpt lat="60.1491091" lon="19.9508745">
        <ele>34.7449</ele>
        <time>2012-06-21T19:48:11Z</time>
      </trkpt>
      <trkpt lat="60.1492645" lon="19.9507597">
        <ele>36.1868</ele>
        <time>2012-06-21T19:48:16Z</time>
      </trkpt>
      <trkpt lat="60.1494353" lon="19.9506699">
        <ele>36.1868</ele>
        <time>2012-06-21T19:48:21Z</time>
      </trkpt>
      <trkpt lat="60.1495945" lon="19.9506125">
        <ele>34.2642</ele>
        <time>2012-06-21T19:48:26Z</time>
      </trkpt>
      <trkpt lat="60.1498204" lon="19.950555">
        <ele>34.2642</ele>
        <time>2012-06-21T19:48:32Z</time>
      </trkpt>
      <trkpt lat="60.1500596" lon="19.9505069">
        <ele>33.7834</ele>
        <time>2012-06-21T19:48:39Z</time>
      </trkpt>
      <trkpt lat="60.1502658" lon="19.9504635">
        <ele>33.7834</ele>
        <time>2012-06-21T19:48:45Z</time>
      </trkpt>
    </trkseg>
  </trk>
</gpx>